KISQ/ISQ METAR and TAF weather

Enter ICAO airport designator
Station Type Date Time Source
KISQ METAR 2019/10/23 12:36 UTC NOAA

KISQ 231236Z AUTO 25005KT 10SM OVC075 06/02 A2960 RMK AO2 T00560017


Station Type Date Time Source
KISQ Decoded METAR 2019/10/23 12:36 UTC NOAA

Manistique, Schoolcraft County Airport, MI, United States (KISQ) 45-58-29N 086-10-19W
Oct 23, 2019 - 08:36 AM EDT / 2019.10.23 1236 UTC
Wind: from the WSW (250 degrees) at 6 MPH (5 KT):0
Visibility: 10 mile(s):0
Sky conditions: overcast
Temperature: 42.1 F (5.6 C)
Dew Point: 35.1 F (1.7 C)
Relative Humidity: 75%
Pressure (altimeter): 29.6 in. Hg (1002 hPa)
ob: KISQ 231236Z AUTO 25005KT 10SM OVC075 06/02 A2960 RMK AO2 T00560017
cycle: 12

Station Type Date Time Source
KISQ TAF UTC NOAA

Error!

Example: see airport list